sensor_id;sensor_type;location;lat;lon;timestamp;P1;durP1;ratioP1;P2;durP2;ratioP2
76807;SDS011;65758;45.458;11.062;2023-04-24T00:01:55;5.10;;;4.50;;
76807;SDS011;65758;45.458;11.062;2023-04-24T00:04:22;5.10;;;4.60;;
76807;SDS011;65758;45.458;11.062;2023-04-24T00:06:52;5.50;;;4.70;;
76807;SDS011;65758;45.458;11.062;2023-04-24T00:09:20;4.80;;;4.30;;
76807;SDS011;65758;45.458;11.062;2023-04-24T00:11:47;8.60;;;5.40;;
76807;SDS011;65758;45.458;11.062;2023-04-24T00:14:14;5.10;;;4.50;;
76807;SDS011;65758;45.458;11.062;2023-04-24T00:16:41;5.30;;;4.60;;
76807;SDS011;65758;45.458;11.062;2023-04-24T00:19:08;5.10;;;4.60;;
76807;SDS011;65758;45.458;11.062;2023-04-24T00:21:35;5.70;;;4.80;;
76807;SDS011;65758;45.458;11.062;2023-04-24T00:24:02;6.60;;;5.10;;
76807;SDS011;65758;45.458;11.062;2023-04-24T00:26:29;5.80;;;5.00;;
76807;SDS011;65758;45.458;11.062;2023-04-24T00:28:55;5.50;;;5.00;;
76807;SDS011;65758;45.458;11.062;2023-04-24T00:31:22;6.80;;;5.40;;
76807;SDS011;65758;45.458;11.062;2023-04-24T00:33:49;5.80;;;5.10;;
76807;SDS011;65758;45.458;11.062;2023-04-24T00:36:16;6.10;;;5.40;;
76807;SDS011;65758;45.458;11.062;2023-04-24T00:38:43;6.80;;;6.00;;
76807;SDS011;65758;45.458;11.062;2023-04-24T00:41:10;8.10;;;5.70;;
76807;SDS011;65758;45.458;11.062;2023-04-24T00:43:36;6.50;;;5.00;;
76807;SDS011;65758;45.458;11.062;2023-04-24T00:46:03;5.90;;;5.30;;
76807;SDS011;65758;45.458;11.062;2023-04-24T00:48:31;6.50;;;5.20;;
76807;SDS011;65758;45.458;11.062;2023-04-24T00:50:58;6.60;;;5.10;;
76807;SDS011;65758;45.458;11.062;2023-04-24T00:53:25;7.20;;;5.70;;
76807;SDS011;65758;45.458;11.062;2023-04-24T00:55:52;6.50;;;5.60;;
76807;SDS011;65758;45.458;11.062;2023-04-24T00:58:18;6.80;;;5.40;;
76807;SDS011;65758;45.458;11.062;2023-04-24T01:00:46;6.30;;;5.50;;
76807;SDS011;65758;45.458;11.062;2023-04-24T01:03:15;8.40;;;5.70;;
76807;SDS011;65758;45.458;11.062;2023-04-24T01:05:43;9.10;;;6.40;;
76807;SDS011;65758;45.458;11.062;2023-04-24T01:08:10;7.00;;;5.30;;
76807;SDS011;65758;45.458;11.062;2023-04-24T01:10:38;6.20;;;5.60;;
76807;SDS011;65758;45.458;11.062;2023-04-24T01:13:07;7.40;;;6.10;;
76807;SDS011;65758;45.458;11.062;2023-04-24T01:15:34;8.00;;;6.10;;
76807;SDS011;65758;45.458;11.062;2023-04-24T01:18:02;8.50;;;6.20;;
76807;SDS011;65758;45.458;11.062;2023-04-24T01:20:29;6.60;;;5.90;;
76807;SDS011;65758;45.458;11.062;2023-04-24T01:22:56;6.80;;;6.00;;
76807;SDS011;65758;45.458;11.062;2023-04-24T01:25:24;9.70;;;7.20;;
76807;SDS011;65758;45.458;11.062;2023-04-24T01:27:55;8.60;;;6.90;;
76807;SDS011;65758;45.458;11.062;2023-04-24T01:30:22;8.60;;;6.60;;
76807;SDS011;65758;45.458;11.062;2023-04-24T01:32:49;8.70;;;7.10;;
76807;SDS011;65758;45.458;11.062;2023-04-24T01:35:18;7.90;;;6.40;;
76807;SDS011;65758;45.458;11.062;2023-04-24T01:37:46;10.90;;;7.60;;
76807;SDS011;65758;45.458;11.062;2023-04-24T01:40:13;10.50;;;7.60;;
76807;SDS011;65758;45.458;11.062;2023-04-24T01:42:40;8.10;;;7.00;;
76807;SDS011;65758;45.458;11.062;2023-04-24T01:45:08;10.40;;;7.70;;
76807;SDS011;65758;45.458;11.062;2023-04-24T01:47:37;7.60;;;6.90;;
76807;SDS011;65758;45.458;11.062;2023-04-24T01:50:04;10.70;;;8.00;;
76807;SDS011;65758;45.458;11.062;2023-04-24T01:52:31;11.10;;;8.60;;
76807;SDS011;65758;45.458;11.062;2023-04-24T01:55:00;10.40;;;8.80;;
76807;SDS011;65758;45.458;11.062;2023-04-24T01:57:26;8.40;;;7.10;;
76807;SDS011;65758;45.458;11.062;2023-04-24T01:59:53;9.10;;;7.80;;
76807;SDS011;65758;45.458;11.062;2023-04-24T02:02:20;11.40;;;8.60;;
76807;SDS011;65758;45.458;11.062;2023-04-24T02:04:47;10.00;;;8.30;;
76807;SDS011;65758;45.458;11.062;2023-04-24T02:07:14;12.50;;;8.80;;
76807;SDS011;65758;45.458;11.062;2023-04-24T02:09:41;10.50;;;8.70;;
76807;SDS011;65758;45.458;11.062;2023-04-24T02:12:08;12.80;;;9.90;;
76807;SDS011;65758;45.458;11.062;2023-04-24T02:14:35;10.00;;;7.90;;
76807;SDS011;65758;45.458;11.062;2023-04-24T02:17:02;13.50;;;9.60;;
76807;SDS011;65758;45.458;11.062;2023-04-24T02:19:29;9.50;;;8.50;;
76807;SDS011;65758;45.458;11.062;2023-04-24T02:21:55;12.60;;;9.40;;
76807;SDS011;65758;45.458;11.062;2023-04-24T02:24:23;10.80;;;8.90;;
76807;SDS011;65758;45.458;11.062;2023-04-24T02:26:49;12.10;;;7.20;;
76807;SDS011;65758;45.458;11.062;2023-04-24T02:29:16;8.30;;;6.20;;
76807;SDS011;65758;45.458;11.062;2023-04-24T02:31:43;12.90;;;9.70;;
76807;SDS011;65758;45.458;11.062;2023-04-24T02:34:12;11.10;;;8.60;;
76807;SDS011;65758;45.458;11.062;2023-04-24T02:36:39;8.80;;;6.10;;
76807;SDS011;65758;45.458;11.062;2023-04-24T02:39:07;9.40;;;7.60;;
76807;SDS011;65758;45.458;11.062;2023-04-24T02:41:34;8.50;;;6.80;;
76807;SDS011;65758;45.458;11.062;2023-04-24T02:44:01;8.30;;;7.30;;
76807;SDS011;65758;45.458;11.062;2023-04-24T02:46:27;9.80;;;8.50;;
76807;SDS011;65758;45.458;11.062;2023-04-24T02:48:54;12.60;;;8.40;;
76807;SDS011;65758;45.458;11.062;2023-04-24T02:51:21;11.60;;;7.80;;
76807;SDS011;65758;45.458;11.062;2023-04-24T02:53:48;11.50;;;8.50;;
76807;SDS011;65758;45.458;11.062;2023-04-24T02:56:15;9.50;;;7.50;;
76807;SDS011;65758;45.458;11.062;2023-04-24T02:58:41;9.00;;;8.00;;
76807;SDS011;65758;45.458;11.062;2023-04-24T03:01:09;10.30;;;8.30;;
76807;SDS011;65758;45.458;11.062;2023-04-24T03:03:38;10.70;;;9.30;;
76807;SDS011;65758;45.458;11.062;2023-04-24T03:06:06;10.70;;;9.40;;
76807;SDS011;65758;45.458;11.062;2023-04-24T03:08:34;11.60;;;9.40;;
76807;SDS011;65758;45.458;11.062;2023-04-24T03:11:01;11.30;;;8.60;;
76807;SDS011;65758;45.458;11.062;2023-04-24T03:13:28;11.80;;;9.30;;
76807;SDS011;65758;45.458;11.062;2023-04-24T03:15:55;11.60;;;9.00;;
76807;SDS011;65758;45.458;11.062;2023-04-24T03:18:21;11.20;;;9.80;;
76807;SDS011;65758;45.458;11.062;2023-04-24T03:20:49;9.50;;;8.60;;
76807;SDS011;65758;45.458;11.062;2023-04-24T03:23:16;10.20;;;8.30;;
76807;SDS011;65758;45.458;11.062;2023-04-24T03:25:44;10.50;;;9.10;;
76807;SDS011;65758;45.458;11.062;2023-04-24T03:28:12;10.10;;;8.30;;
76807;SDS011;65758;45.458;11.062;2023-04-24T03:30:42;10.80;;;8.60;;
76807;SDS011;65758;45.458;11.062;2023-04-24T03:33:09;8.90;;;7.90;;
76807;SDS011;65758;45.458;11.062;2023-04-24T03:35:41;11.90;;;8.30;;
76807;SDS011;65758;45.458;11.062;2023-04-24T03:38:09;10.50;;;8.50;;
76807;SDS011;65758;45.458;11.062;2023-04-24T03:40:41;9.50;;;8.60;;
76807;SDS011;65758;45.458;11.062;2023-04-24T03:43:20;11.90;;;8.80;;
76807;SDS011;65758;45.458;11.062;2023-04-24T03:45:46;10.60;;;8.30;;
76807;SDS011;65758;45.458;11.062;2023-04-24T03:48:13;11.90;;;8.90;;
76807;SDS011;65758;45.458;11.062;2023-04-24T03:50:40;10.70;;;8.90;;
76807;SDS011;65758;45.458;11.062;2023-04-24T03:53:08;12.10;;;8.60;;
76807;SDS011;65758;45.458;11.062;2023-04-24T03:55:38;9.80;;;7.50;;
76807;SDS011;65758;45.458;11.062;2023-04-24T03:58:04;12.20;;;8.60;;
76807;SDS011;65758;45.458;11.062;2023-04-24T04:00:32;10.30;;;8.70;;
76807;SDS011;65758;45.458;11.062;2023-04-24T04:03:19;10.50;;;8.10;;
76807;SDS011;65758;45.458;11.062;2023-04-24T04:05:48;13.30;;;9.20;;
76807;SDS011;65758;45.458;11.062;2023-04-24T04:08:14;12.60;;;8.80;;
76807;SDS011;65758;45.458;11.062;2023-04-24T04:10:41;10.20;;;8.90;;
76807;SDS011;65758;45.458;11.062;2023-04-24T04:13:08;10.50;;;7.80;;
76807;SDS011;65758;45.458;11.062;2023-04-24T04:15:35;8.10;;;7.30;;
76807;SDS011;65758;45.458;11.062;2023-04-24T04:18:02;9.40;;;7.30;;
76807;SDS011;65758;45.458;11.062;2023-04-24T04:20:29;9.60;;;8.10;;
76807;SDS011;65758;45.458;11.062;2023-04-24T04:22:56;11.20;;;8.30;;
76807;SDS011;65758;45.458;11.062;2023-04-24T04:25:31;9.50;;;8.50;;
76807;SDS011;65758;45.458;11.062;2023-04-24T04:27:59;9.80;;;8.60;;
76807;SDS011;65758;45.458;11.062;2023-04-24T04:30:26;10.80;;;8.80;;
76807;SDS011;65758;45.458;11.062;2023-04-24T04:33:01;11.90;;;9.20;;
76807;SDS011;65758;45.458;11.062;2023-04-24T04:35:28;10.50;;;8.00;;
76807;SDS011;65758;45.458;11.062;2023-04-24T04:37:55;9.80;;;8.70;;
76807;SDS011;65758;45.458;11.062;2023-04-24T04:40:37;8.40;;;7.40;;
76807;SDS011;65758;45.458;11.062;2023-04-24T04:43:04;10.50;;;6.80;;
76807;SDS011;65758;45.458;11.062;2023-04-24T04:45:38;8.50;;;6.00;;
76807;SDS011;65758;45.458;11.062;2023-04-24T04:48:20;6.50;;;5.80;;
76807;SDS011;65758;45.458;11.062;2023-04-24T04:50:48;6.80;;;5.80;;
76807;SDS011;65758;45.458;11.062;2023-04-24T04:53:15;8.40;;;5.90;;
76807;SDS011;65758;45.458;11.062;2023-04-24T04:55:42;6.20;;;5.60;;
76807;SDS011;65758;45.458;11.062;2023-04-24T04:58:17;6.90;;;5.90;;
76807;SDS011;65758;45.458;11.062;2023-04-24T05:00:44;7.40;;;5.80;;
76807;SDS011;65758;45.458;11.062;2023-04-24T05:03:16;7.40;;;6.60;;
76807;SDS011;65758;45.458;11.062;2023-04-24T05:05:51;7.20;;;5.50;;
76807;SDS011;65758;45.458;11.062;2023-04-24T05:08:18;7.20;;;6.30;;
76807;SDS011;65758;45.458;11.062;2023-04-24T05:10:53;6.90;;;6.20;;
76807;SDS011;65758;45.458;11.062;2023-04-24T05:13:21;3.50;;;3.10;;
76807;SDS011;65758;45.458;11.062;2023-04-24T05:16:09;2.70;;;2.30;;
76807;SDS011;65758;45.458;11.062;2023-04-24T05:18:37;2.40;;;2.00;;
76807;SDS011;65758;45.458;11.062;2023-04-24T05:21:05;1.80;;;1.60;;
76807;SDS011;65758;45.458;11.062;2023-04-24T05:23:33;1.20;;;1.20;;
76807;SDS011;65758;45.458;11.062;2023-04-24T05:26:00;1.50;;;1.40;;
76807;SDS011;65758;45.458;11.062;2023-04-24T05:28:27;1.10;;;1.00;;
76807;SDS011;65758;45.458;11.062;2023-04-24T05:31:03;1.20;;;1.10;;
76807;SDS011;65758;45.458;11.062;2023-04-24T05:33:30;1.40;;;1.10;;
76807;SDS011;65758;45.458;11.062;2023-04-24T05:35:57;2.40;;;1.10;;
76807;SDS011;65758;45.458;11.062;2023-04-24T05:38:24;0.80;;;0.80;;
76807;SDS011;65758;45.458;11.062;2023-04-24T05:40:51;1.10;;;0.80;;
76807;SDS011;65758;45.458;11.062;2023-04-24T05:43:18;1.30;;;0.90;;
76807;SDS011;65758;45.458;11.062;2023-04-24T05:45:45;1.10;;;0.80;;
76807;SDS011;65758;45.458;11.062;2023-04-24T05:48:12;1.50;;;0.70;;
76807;SDS011;65758;45.458;11.062;2023-04-24T05:50:39;1.40;;;0.90;;
76807;SDS011;65758;45.458;11.062;2023-04-24T05:53:06;2.70;;;1.20;;
76807;SDS011;65758;45.458;11.062;2023-04-24T05:55:34;1.00;;;1.00;;
76807;SDS011;65758;45.458;11.062;2023-04-24T05:58:02;0.80;;;0.80;;
76807;SDS011;65758;45.458;11.062;2023-04-24T06:00:29;1.10;;;0.80;;
76807;SDS011;65758;45.458;11.062;2023-04-24T06:03:01;1.30;;;0.90;;
76807;SDS011;65758;45.458;11.062;2023-04-24T06:05:31;1.40;;;0.80;;
76807;SDS011;65758;45.458;11.062;2023-04-24T06:07:58;1.00;;;0.70;;
76807;SDS011;65758;45.458;11.062;2023-04-24T06:10:28;0.70;;;0.70;;
76807;SDS011;65758;45.458;11.062;2023-04-24T06:12:55;2.10;;;1.40;;
76807;SDS011;65758;45.458;11.062;2023-04-24T06:15:28;1.90;;;1.10;;
76807;SDS011;65758;45.458;11.062;2023-04-24T06:18:00;2.70;;;1.40;;
76807;SDS011;65758;45.458;11.062;2023-04-24T06:20:27;0.90;;;0.90;;
76807;SDS011;65758;45.458;11.062;2023-04-24T06:22:54;5.90;;;1.70;;
76807;SDS011;65758;45.458;11.062;2023-04-24T06:25:21;1.20;;;0.90;;
76807;SDS011;65758;45.458;11.062;2023-04-24T06:27:49;1.10;;;0.90;;
76807;SDS011;65758;45.458;11.062;2023-04-24T06:30:16;0.70;;;0.70;;
76807;SDS011;65758;45.458;11.062;2023-04-24T06:32:43;2.30;;;1.00;;
76807;SDS011;65758;45.458;11.062;2023-04-24T06:35:10;3.20;;;1.50;;
76807;SDS011;65758;45.458;11.062;2023-04-24T06:37:41;0.90;;;0.80;;
76807;SDS011;65758;45.458;11.062;2023-04-24T06:40:09;1.60;;;1.00;;
76807;SDS011;65758;45.458;11.062;2023-04-24T06:42:36;0.90;;;0.90;;
76807;SDS011;65758;45.458;11.062;2023-04-24T06:45:07;1.10;;;0.70;;
76807;SDS011;65758;45.458;11.062;2023-04-24T06:47:34;0.80;;;0.80;;
76807;SDS011;65758;45.458;11.062;2023-04-24T06:50:00;1.20;;;0.70;;
76807;SDS011;65758;45.458;11.062;2023-04-24T06:52:29;0.80;;;0.80;;
76807;SDS011;65758;45.458;11.062;2023-04-24T06:54:59;0.90;;;0.90;;
76807;SDS011;65758;45.458;11.062;2023-04-24T06:57:28;1.20;;;0.90;;
76807;SDS011;65758;45.458;11.062;2023-04-24T06:59:55;1.50;;;1.10;;
76807;SDS011;65758;45.458;11.062;2023-04-24T07:02:22;2.00;;;1.10;;
76807;SDS011;65758;45.458;11.062;2023-04-24T07:04:49;1.30;;;1.20;;
76807;SDS011;65758;45.458;11.062;2023-04-24T07:07:16;1.80;;;1.10;;
76807;SDS011;65758;45.458;11.062;2023-04-24T07:09:43;2.30;;;1.70;;
76807;SDS011;65758;45.458;11.062;2023-04-24T07:12:11;4.10;;;2.00;;
76807;SDS011;65758;45.458;11.062;2023-04-24T07:14:38;2.50;;;2.00;;
76807;SDS011;65758;45.458;11.062;2023-04-24T07:17:06;2.10;;;1.90;;
76807;SDS011;65758;45.458;11.062;2023-04-24T07:19:33;1.90;;;1.70;;
76807;SDS011;65758;45.458;11.062;2023-04-24T07:22:01;5.90;;;2.00;;
76807;SDS011;65758;45.458;11.062;2023-04-24T07:24:30;4.90;;;2.20;;
76807;SDS011;65758;45.458;11.062;2023-04-24T07:26:58;3.80;;;2.30;;
76807;SDS011;65758;45.458;11.062;2023-04-24T07:29:27;2.30;;;2.10;;
76807;SDS011;65758;45.458;11.062;2023-04-24T07:31:54;3.00;;;2.60;;
76807;SDS011;65758;45.458;11.062;2023-04-24T07:34:20;3.00;;;2.50;;
76807;SDS011;65758;45.458;11.062;2023-04-24T07:36:47;3.80;;;2.50;;
76807;SDS011;65758;45.458;11.062;2023-04-24T07:39:14;4.40;;;2.80;;
76807;SDS011;65758;45.458;11.062;2023-04-24T07:41:41;3.10;;;2.80;;
76807;SDS011;65758;45.458;11.062;2023-04-24T07:44:07;3.60;;;2.20;;
76807;SDS011;65758;45.458;11.062;2023-04-24T07:46:34;3.10;;;2.30;;
76807;SDS011;65758;45.458;11.062;2023-04-24T07:49:01;3.40;;;3.00;;
76807;SDS011;65758;45.458;11.062;2023-04-24T07:51:39;5.80;;;2.90;;
76807;SDS011;65758;45.458;11.062;2023-04-24T07:54:08;4.10;;;3.20;;
76807;SDS011;65758;45.458;11.062;2023-04-24T07:56:35;4.70;;;3.00;;
76807;SDS011;65758;45.458;11.062;2023-04-24T07:59:06;3.30;;;2.80;;
76807;SDS011;65758;45.458;11.062;2023-04-24T08:01:32;3.10;;;2.80;;
76807;SDS011;65758;45.458;11.062;2023-04-24T08:03:59;3.20;;;2.70;;
76807;SDS011;65758;45.458;11.062;2023-04-24T08:06:27;3.80;;;3.10;;
76807;SDS011;65758;45.458;11.062;2023-04-24T08:08:59;5.30;;;2.80;;
76807;SDS011;65758;45.458;11.062;2023-04-24T08:11:26;3.90;;;2.50;;
76807;SDS011;65758;45.458;11.062;2023-04-24T08:13:53;3.20;;;2.30;;
76807;SDS011;65758;45.458;11.062;2023-04-24T08:16:21;2.70;;;2.50;;
76807;SDS011;65758;45.458;11.062;2023-04-24T08:18:50;4.40;;;2.00;;
76807;SDS011;65758;45.458;11.062;2023-04-24T08:21:18;1.60;;;1.50;;
76807;SDS011;65758;45.458;11.062;2023-04-24T08:23:45;1.30;;;1.20;;
76807;SDS011;65758;45.458;11.062;2023-04-24T08:26:12;1.10;;;1.00;;
76807;SDS011;65758;45.458;11.062;2023-04-24T08:28:40;0.50;;;0.50;;
76807;SDS011;65758;45.458;11.062;2023-04-24T08:31:07;0.60;;;0.60;;
76807;SDS011;65758;45.458;11.062;2023-04-24T08:33:34;0.40;;;0.40;;
76807;SDS011;65758;45.458;11.062;2023-04-24T08:36:02;0.20;;;0.20;;
76807;SDS011;65758;45.458;11.062;2023-04-24T08:38:30;0.70;;;0.70;;
76807;SDS011;65758;45.458;11.062;2023-04-24T08:40:58;0.60;;;0.60;;
76807;SDS011;65758;45.458;11.062;2023-04-24T08:43:26;0.50;;;0.50;;
76807;SDS011;65758;45.458;11.062;2023-04-24T08:45:55;0.30;;;0.30;;
76807;SDS011;65758;45.458;11.062;2023-04-24T08:48:23;0.40;;;0.40;;
76807;SDS011;65758;45.458;11.062;2023-04-24T08:50:58;0.60;;;0.30;;
76807;SDS011;65758;45.458;11.062;2023-04-24T08:53:29;1.10;;;0.40;;
76807;SDS011;65758;45.458;11.062;2023-04-24T08:55:57;0.40;;;0.40;;
76807;SDS011;65758;45.458;11.062;2023-04-24T08:58:25;0.40;;;0.40;;
76807;SDS011;65758;45.458;11.062;2023-04-24T09:00:56;0.40;;;0.30;;
76807;SDS011;65758;45.458;11.062;2023-04-24T09:03:24;0.10;;;0.10;;
76807;SDS011;65758;45.458;11.062;2023-04-24T09:05:55;0.30;;;0.10;;
76807;SDS011;65758;45.458;11.062;2023-04-24T09:08:24;0.20;;;0.20;;
76807;SDS011;65758;45.458;11.062;2023-04-24T09:10:52;0.30;;;0.30;;
76807;SDS011;65758;45.458;11.062;2023-04-24T09:13:19;0.40;;;0.40;;
76807;SDS011;65758;45.458;11.062;2023-04-24T09:15:46;0.50;;;0.50;;
76807;SDS011;65758;45.458;11.062;2023-04-24T09:18:13;0.30;;;0.30;;
76807;SDS011;65758;45.458;11.062;2023-04-24T09:20:59;0.30;;;0.30;;
76807;SDS011;65758;45.458;11.062;2023-04-24T09:23:33;0.40;;;0.40;;
76807;SDS011;65758;45.458;11.062;2023-04-24T09:26:00;0.60;;;0.50;;
76807;SDS011;65758;45.458;11.062;2023-04-24T09:28:30;1.60;;;0.70;;
76807;SDS011;65758;45.458;11.062;2023-04-24T09:31:03;3.00;;;1.00;;
76807;SDS011;65758;45.458;11.062;2023-04-24T09:33:30;3.10;;;1.00;;
76807;SDS011;65758;45.458;11.062;2023-04-24T09:35:57;1.60;;;1.40;;
76807;SDS011;65758;45.458;11.062;2023-04-24T09:38:35;4.70;;;1.10;;
76807;SDS011;65758;45.458;11.062;2023-04-24T09:41:06;0.80;;;0.80;;
76807;SDS011;65758;45.458;11.062;2023-04-24T09:43:35;1.00;;;0.90;;
76807;SDS011;65758;45.458;11.062;2023-04-24T09:46:06;0.80;;;0.60;;
76807;SDS011;65758;45.458;11.062;2023-04-24T09:48:36;1.40;;;0.50;;
76807;SDS011;65758;45.458;11.062;2023-04-24T09:51:04;1.00;;;0.70;;
76807;SDS011;65758;45.458;11.062;2023-04-24T09:53:37;1.40;;;0.90;;
76807;SDS011;65758;45.458;11.062;2023-04-24T09:56:09;0.80;;;0.80;;
76807;SDS011;65758;45.458;11.062;2023-04-24T09:58:38;0.80;;;0.80;;
76807;SDS011;65758;45.458;11.062;2023-04-24T10:01:05;1.70;;;0.90;;
76807;SDS011;65758;45.458;11.062;2023-04-24T10:03:33;0.90;;;0.80;;
76807;SDS011;65758;45.458;11.062;2023-04-24T10:06:00;1.10;;;1.00;;
76807;SDS011;65758;45.458;11.062;2023-04-24T10:08:34;2.50;;;0.90;;
76807;SDS011;65758;45.458;11.062;2023-04-24T10:11:03;2.40;;;1.20;;
76807;SDS011;65758;45.458;11.062;2023-04-24T10:13:30;1.00;;;0.90;;
76807;SDS011;65758;45.458;11.062;2023-04-24T10:15:57;0.70;;;0.70;;
76807;SDS011;65758;45.458;11.062;2023-04-24T10:18:27;1.80;;;1.70;;
76807;SDS011;65758;45.458;11.062;2023-04-24T10:20:54;1.50;;;1.30;;
76807;SDS011;65758;45.458;11.062;2023-04-24T10:23:21;2.40;;;1.30;;
76807;SDS011;65758;45.458;11.062;2023-04-24T10:25:49;2.00;;;1.30;;
76807;SDS011;65758;45.458;11.062;2023-04-24T10:28:17;2.00;;;1.80;;
76807;SDS011;65758;45.458;11.062;2023-04-24T10:30:45;1.90;;;1.30;;
76807;SDS011;65758;45.458;11.062;2023-04-24T10:33:14;1.30;;;1.20;;
76807;SDS011;65758;45.458;11.062;2023-04-24T10:35:42;3.80;;;1.40;;
76807;SDS011;65758;45.458;11.062;2023-04-24T10:38:12;1.20;;;1.10;;
76807;SDS011;65758;45.458;11.062;2023-04-24T10:40:41;1.40;;;1.20;;
76807;SDS011;65758;45.458;11.062;2023-04-24T10:43:08;1.20;;;1.10;;
76807;SDS011;65758;45.458;11.062;2023-04-24T10:45:38;1.40;;;1.00;;
76807;SDS011;65758;45.458;11.062;2023-04-24T10:48:07;1.00;;;0.90;;
76807;SDS011;65758;45.458;11.062;2023-04-24T10:50:46;1.10;;;0.90;;
76807;SDS011;65758;45.458;11.062;2023-04-24T10:53:21;0.90;;;0.90;;
76807;SDS011;65758;45.458;11.062;2023-04-24T10:56:06;1.00;;;0.90;;
76807;SDS011;65758;45.458;11.062;2023-04-24T10:58:57;1.10;;;1.00;;
76807;SDS011;65758;45.458;11.062;2023-04-24T11:01:27;1.20;;;0.70;;
76807;SDS011;65758;45.458;11.062;2023-04-24T11:03:57;0.90;;;0.90;;
76807;SDS011;65758;45.458;11.062;2023-04-24T11:06:32;0.50;;;0.50;;
76807;SDS011;65758;45.458;11.062;2023-04-24T11:09:09;0.90;;;0.70;;
76807;SDS011;65758;45.458;11.062;2023-04-24T11:11:38;0.70;;;0.70;;
76807;SDS011;65758;45.458;11.062;2023-04-24T11:14:13;0.50;;;0.50;;
76807;SDS011;65758;45.458;11.062;2023-04-24T11:16:45;0.90;;;0.60;;
76807;SDS011;65758;45.458;11.062;2023-04-24T11:19:20;0.70;;;0.70;;
76807;SDS011;65758;45.458;11.062;2023-04-24T11:22:00;0.60;;;0.60;;
76807;SDS011;65758;45.458;11.062;2023-04-24T11:32:17;0.70;;;0.70;;
76807;SDS011;65758;45.458;11.062;2023-04-24T11:34:46;1.10;;;1.00;;
76807;SDS011;65758;45.458;11.062;2023-04-24T11:37:16;1.00;;;1.00;;
76807;SDS011;65758;45.458;11.062;2023-04-24T11:39:43;2.00;;;0.70;;
76807;SDS011;65758;45.458;11.062;2023-04-24T11:42:10;0.80;;;0.80;;
76807;SDS011;65758;45.458;11.062;2023-04-24T11:44:37;1.10;;;1.10;;
76807;SDS011;65758;45.458;11.062;2023-04-24T11:47:05;1.30;;;0.90;;
76807;SDS011;65758;45.458;11.062;2023-04-24T11:49:33;1.50;;;1.10;;
76807;SDS011;65758;45.458;11.062;2023-04-24T11:52:00;1.40;;;0.90;;
76807;SDS011;65758;45.458;11.062;2023-04-24T11:54:28;0.80;;;0.80;;
76807;SDS011;65758;45.458;11.062;2023-04-24T11:56:56;0.80;;;0.80;;
76807;SDS011;65758;45.458;11.062;2023-04-24T11:59:23;1.40;;;0.60;;
76807;SDS011;65758;45.458;11.062;2023-04-24T12:01:50;0.40;;;0.40;;
76807;SDS011;65758;45.458;11.062;2023-04-24T12:04:17;0.40;;;0.40;;
76807;SDS011;65758;45.458;11.062;2023-04-24T12:07:00;0.60;;;0.60;;
76807;SDS011;65758;45.458;11.062;2023-04-24T12:09:27;0.60;;;0.60;;
76807;SDS011;65758;45.458;11.062;2023-04-24T12:11:56;0.50;;;0.50;;
76807;SDS011;65758;45.458;11.062;2023-04-24T12:14:23;0.50;;;0.50;;
76807;SDS011;65758;45.458;11.062;2023-04-24T12:16:50;0.30;;;0.30;;
76807;SDS011;65758;45.458;11.062;2023-04-24T12:19:23;0.70;;;0.70;;
76807;SDS011;65758;45.458;11.062;2023-04-24T12:22:03;0.60;;;0.60;;
76807;SDS011;65758;45.458;11.062;2023-04-24T12:24:32;0.50;;;0.50;;
76807;SDS011;65758;45.458;11.062;2023-04-24T12:26:58;0.40;;;0.40;;
76807;SDS011;65758;45.458;11.062;2023-04-24T12:29:27;0.50;;;0.50;;
76807;SDS011;65758;45.458;11.062;2023-04-24T12:31:54;0.60;;;0.50;;
76807;SDS011;65758;45.458;11.062;2023-04-24T12:34:22;0.20;;;0.20;;
76807;SDS011;65758;45.458;11.062;2023-04-24T12:36:51;1.10;;;0.70;;
76807;SDS011;65758;45.458;11.062;2023-04-24T12:39:18;1.20;;;0.40;;
76807;SDS011;65758;45.458;11.062;2023-04-24T12:41:55;0.60;;;0.40;;
76807;SDS011;65758;45.458;11.062;2023-04-24T12:44:30;0.40;;;0.40;;
76807;SDS011;65758;45.458;11.062;2023-04-24T12:47:01;0.50;;;0.50;;
76807;SDS011;65758;45.458;11.062;2023-04-24T12:49:29;0.90;;;0.90;;
76807;SDS011;65758;45.458;11.062;2023-04-24T12:51:56;0.60;;;0.60;;
76807;SDS011;65758;45.458;11.062;2023-04-24T12:54:23;1.10;;;0.80;;
76807;SDS011;65758;45.458;11.062;2023-04-24T12:56:50;0.90;;;0.80;;
76807;SDS011;65758;45.458;11.062;2023-04-24T12:59:17;2.00;;;0.60;;
76807;SDS011;65758;45.458;11.062;2023-04-24T13:01:43;0.80;;;0.80;;
76807;SDS011;65758;45.458;11.062;2023-04-24T13:04:10;1.20;;;0.60;;
76807;SDS011;65758;45.458;11.062;2023-04-24T13:06:37;3.00;;;0.90;;
76807;SDS011;65758;45.458;11.062;2023-04-24T13:09:04;2.20;;;0.60;;
76807;SDS011;65758;45.458;11.062;2023-04-24T13:11:31;0.80;;;0.80;;
76807;SDS011;65758;45.458;11.062;2023-04-24T13:13:58;1.40;;;0.90;;
76807;SDS011;65758;45.458;11.062;2023-04-24T13:16:24;1.80;;;0.60;;
76807;SDS011;65758;45.458;11.062;2023-04-24T13:18:51;1.20;;;0.60;;
76807;SDS011;65758;45.458;11.062;2023-04-24T13:21:18;0.60;;;0.60;;
76807;SDS011;65758;45.458;11.062;2023-04-24T13:23:45;1.20;;;0.60;;
76807;SDS011;65758;45.458;11.062;2023-04-24T13:26:11;1.20;;;0.80;;
76807;SDS011;65758;45.458;11.062;2023-04-24T13:28:38;0.90;;;0.70;;
76807;SDS011;65758;45.458;11.062;2023-04-24T13:31:05;0.70;;;0.70;;
76807;SDS011;65758;45.458;11.062;2023-04-24T13:33:32;1.00;;;0.60;;
76807;SDS011;65758;45.458;11.062;2023-04-24T13:35:59;1.00;;;0.80;;
76807;SDS011;65758;45.458;11.062;2023-04-24T13:38:26;0.70;;;0.70;;
76807;SDS011;65758;45.458;11.062;2023-04-24T13:40:56;0.70;;;0.70;;
76807;SDS011;65758;45.458;11.062;2023-04-24T13:43:23;1.40;;;0.70;;
76807;SDS011;65758;45.458;11.062;2023-04-24T13:45:50;0.50;;;0.50;;
76807;SDS011;65758;45.458;11.062;2023-04-24T13:48:17;0.60;;;0.60;;
76807;SDS011;65758;45.458;11.062;2023-04-24T13:50:44;1.00;;;0.90;;
76807;SDS011;65758;45.458;11.062;2023-04-24T13:53:11;0.80;;;0.80;;
76807;SDS011;65758;45.458;11.062;2023-04-24T13:55:37;1.60;;;0.80;;
76807;SDS011;65758;45.458;11.062;2023-04-24T13:58:05;1.10;;;1.10;;
76807;SDS011;65758;45.458;11.062;2023-04-24T14:00:33;1.10;;;1.00;;
76807;SDS011;65758;45.458;11.062;2023-04-24T14:02:59;1.20;;;1.20;;
76807;SDS011;65758;45.458;11.062;2023-04-24T14:05:27;1.10;;;1.00;;
76807;SDS011;65758;45.458;11.062;2023-04-24T14:07:54;1.40;;;1.20;;
76807;SDS011;65758;45.458;11.062;2023-04-24T14:10:20;1.70;;;1.20;;
76807;SDS011;65758;45.458;11.062;2023-04-24T14:12:47;1.10;;;1.10;;
76807;SDS011;65758;45.458;11.062;2023-04-24T14:15:14;1.10;;;1.10;;
76807;SDS011;65758;45.458;11.062;2023-04-24T14:17:41;1.60;;;1.30;;
76807;SDS011;65758;45.458;11.062;2023-04-24T14:20:08;2.40;;;1.50;;
76807;SDS011;65758;45.458;11.062;2023-04-24T14:22:35;1.30;;;1.20;;
76807;SDS011;65758;45.458;11.062;2023-04-24T14:25:02;2.10;;;1.20;;
76807;SDS011;65758;45.458;11.062;2023-04-24T14:27:31;1.40;;;1.30;;
76807;SDS011;65758;45.458;11.062;2023-04-24T14:29:58;2.10;;;1.10;;
76807;SDS011;65758;45.458;11.062;2023-04-24T14:32:24;1.40;;;1.20;;
76807;SDS011;65758;45.458;11.062;2023-04-24T14:34:51;1.40;;;1.20;;
76807;SDS011;65758;45.458;11.062;2023-04-24T14:37:18;1.30;;;1.20;;
76807;SDS011;65758;45.458;11.062;2023-04-24T14:39:45;1.70;;;1.40;;
76807;SDS011;65758;45.458;11.062;2023-04-24T14:42:31;2.80;;;1.10;;
76807;SDS011;65758;45.458;11.062;2023-04-24T14:44:59;1.60;;;1.40;;
76807;SDS011;65758;45.458;11.062;2023-04-24T14:47:26;4.50;;;1.20;;
76807;SDS011;65758;45.458;11.062;2023-04-24T14:49:53;1.50;;;1.40;;